createdAt,value
2022-10-07T00:00:10.670Z,7.00
2022-10-07T00:02:41.041Z,7.00
2022-10-07T00:05:10.439Z,7.00
2022-10-07T00:07:41.127Z,7.00
2022-10-07T00:10:18.076Z,6.90
2022-10-07T00:12:53.568Z,6.90
2022-10-07T00:15:31.117Z,6.90
2022-10-07T00:18:00.190Z,6.90
2022-10-07T00:20:29.348Z,6.90
2022-10-07T00:22:59.868Z,6.90
2022-10-07T00:25:29.028Z,6.90
2022-10-07T00:27:58.109Z,6.90
2022-10-07T00:30:27.347Z,6.90
2022-10-07T00:32:56.485Z,6.90
2022-10-07T00:35:25.463Z,6.90
2022-10-07T00:37:54.539Z,6.90
2022-10-07T00:40:24.837Z,6.90
2022-10-07T00:42:53.857Z,6.90
2022-10-07T00:45:22.904Z,6.80
2022-10-07T00:47:52.647Z,6.80
2022-10-07T00:50:25.979Z,6.80
2022-10-07T00:52:59.097Z,6.80
2022-10-07T00:55:31.505Z,6.80
2022-10-07T00:58:04.467Z,6.80
2022-10-07T01:00:33.535Z,6.70
2022-10-07T01:03:02.457Z,6.80
2022-10-07T01:05:31.412Z,6.70
2022-10-07T01:08:01.564Z,6.70
2022-10-07T01:10:41.004Z,6.70
2022-10-07T01:13:15.636Z,6.70
2022-10-07T01:15:53.604Z,6.70
2022-10-07T01:18:28.236Z,6.70
2022-10-07T01:21:02.537Z,6.70
2022-10-07T01:23:44.677Z,6.60
2022-10-07T01:26:40.617Z,6.60
2022-10-07T01:29:13.013Z,6.60
2022-10-07T01:31:47.090Z,6.60
2022-10-07T01:34:17.287Z,6.60
2022-10-07T01:36:52.221Z,6.60
2022-10-07T01:39:25.967Z,6.60
2022-10-07T01:41:57.094Z,6.60
2022-10-07T01:44:27.598Z,6.60
2022-10-07T01:46:56.618Z,6.50
2022-10-07T01:49:25.673Z,6.50
2022-10-07T01:52:09.133Z,6.50
2022-10-07T01:54:55.377Z,6.50
2022-10-07T01:57:37.299Z,6.40
2022-10-07T02:00:10.343Z,6.40
2022-10-07T02:03:06.778Z,6.40
2022-10-07T02:05:44.426Z,6.30
2022-10-07T02:08:32.707Z,6.30
2022-10-07T02:13:42.890Z,6.20
2022-10-07T02:16:19.905Z,6.30
2022-10-07T02:18:53.327Z,6.30
2022-10-07T02:21:26.798Z,6.30
2022-10-07T02:23:58.811Z,6.30
2022-10-07T02:26:30.732Z,6.30
2022-10-07T02:29:04.569Z,6.30
2022-10-07T02:31:36.128Z,6.30
2022-10-07T02:34:08.461Z,6.30
2022-10-07T02:36:42.886Z,6.30
2022-10-07T02:39:12.614Z,6.30
2022-10-07T02:41:51.398Z,6.30
2022-10-07T02:44:27.954Z,6.30
2022-10-07T02:47:03.021Z,6.20
2022-10-07T02:49:33.225Z,6.30
2022-10-07T02:52:07.064Z,6.20
2022-10-07T02:54:42.098Z,6.20
2022-10-07T02:57:12.727Z,6.20
2022-10-07T02:59:46.100Z,6.20
2022-10-07T03:02:19.848Z,6.20
2022-10-07T03:04:49.939Z,6.20
2022-10-07T03:07:19.327Z,6.20
2022-10-07T03:09:48.839Z,6.10
2022-10-07T03:12:18.224Z,6.10
2022-10-07T03:14:50.619Z,6.10
2022-10-07T03:17:20.031Z,6.10
2022-10-07T03:19:49.949Z,6.10
2022-10-07T03:22:19.019Z,6.10
2022-10-07T03:24:49.078Z,6.00
2022-10-07T03:27:18.739Z,6.00
2022-10-07T03:29:50.647Z,6.00
2022-10-07T03:32:19.962Z,6.00
2022-10-07T03:34:49.434Z,6.00
2022-10-07T03:37:18.827Z,6.00
2022-10-07T03:39:48.036Z,6.00
2022-10-07T03:42:17.419Z,5.90
2022-10-07T03:44:50.599Z,6.00
2022-10-07T03:47:22.068Z,5.90
2022-10-07T03:49:51.299Z,5.90
2022-10-07T03:52:20.487Z,5.90
2022-10-07T03:54:49.422Z,5.90
2022-10-07T03:57:35.999Z,5.90
2022-10-07T04:00:07.260Z,5.90
2022-10-07T04:02:36.170Z,5.90
2022-10-07T04:05:05.601Z,5.90
2022-10-07T04:07:34.899Z,5.90
2022-10-07T04:10:04.507Z,5.80
2022-10-07T04:12:33.989Z,5.80
2022-10-07T04:15:03.040Z,5.80
2022-10-07T04:17:33.539Z,5.80
2022-10-07T04:20:02.539Z,5.70
2022-10-07T04:22:33.367Z,5.70
2022-10-07T04:25:20.060Z,5.70
2022-10-07T04:27:54.406Z,5.70
2022-10-07T04:30:24.367Z,5.70
2022-10-07T04:32:55.119Z,5.60
2022-10-07T04:35:25.248Z,5.60
2022-10-07T04:37:54.902Z,5.60
2022-10-07T04:40:25.143Z,5.60
2022-10-07T04:43:11.380Z,5.60
2022-10-07T04:45:41.352Z,5.60
2022-10-07T04:48:11.902Z,5.60
2022-10-07T04:50:41.314Z,5.60
2022-10-07T04:53:12.566Z,5.60
2022-10-07T04:55:42.980Z,5.60
2022-10-07T04:58:12.319Z,5.60
2022-10-07T05:00:45.221Z,5.60
2022-10-07T05:03:17.049Z,5.70
2022-10-07T05:05:47.706Z,5.70
2022-10-07T05:08:18.246Z,5.70
2022-10-07T05:10:48.068Z,5.80
2022-10-07T05:13:18.587Z,5.80
2022-10-07T05:15:51.734Z,5.80
2022-10-07T05:18:23.234Z,5.90
2022-10-07T05:20:53.133Z,5.90
2022-10-07T05:23:28.097Z,5.90
2022-10-07T05:26:02.187Z,5.90
2022-10-07T05:28:31.360Z,6.00
2022-10-07T05:31:06.053Z,6.00
2022-10-07T05:33:37.153Z,6.10
2022-10-07T05:36:08.394Z,6.10
2022-10-07T05:38:38.053Z,6.10
2022-10-07T05:41:08.748Z,6.20
2022-10-07T05:43:42.426Z,6.30
2022-10-07T05:46:14.296Z,6.40
2022-10-07T05:48:48.255Z,6.40
2022-10-07T05:51:17.606Z,6.50
2022-10-07T05:53:47.441Z,6.60
2022-10-07T05:56:18.275Z,6.60
2022-10-07T05:58:47.740Z,6.70
2022-10-07T06:01:18.500Z,6.80
2022-10-07T06:03:53.506Z,6.90
2022-10-07T06:06:23.320Z,6.90
2022-10-07T06:08:53.228Z,7.00
2022-10-07T06:11:39.528Z,7.00
2022-10-07T06:14:10.878Z,7.10
2022-10-07T06:16:40.107Z,7.20
2022-10-07T06:19:22.958Z,7.30
2022-10-07T06:21:52.691Z,7.30
2022-10-07T06:24:21.938Z,7.40
2022-10-07T06:26:51.486Z,7.50
2022-10-07T06:29:20.726Z,7.60
2022-10-07T06:31:49.932Z,7.60
2022-10-07T06:34:20.618Z,7.70
2022-10-07T06:36:49.639Z,7.80
2022-10-07T06:39:18.919Z,7.90
2022-10-07T06:41:48.114Z,8.00
2022-10-07T06:44:17.456Z,8.10
2022-10-07T06:46:46.578Z,8.10
2022-10-07T06:49:15.759Z,8.30
2022-10-07T06:51:47.058Z,8.40
2022-10-07T06:54:16.159Z,8.50
2022-10-07T06:56:45.418Z,8.60
2022-10-07T06:59:14.467Z,8.80
2022-10-07T07:01:43.827Z,8.90
2022-10-07T07:04:13.054Z,8.90
2022-10-07T07:06:42.238Z,9.10
2022-10-07T07:09:12.926Z,9.20
2022-10-07T07:11:43.806Z,9.30
2022-10-07T07:14:15.567Z,9.40
2022-10-07T07:16:44.934Z,9.50
2022-10-07T07:19:15.867Z,9.60
2022-10-07T07:21:48.955Z,9.70
2022-10-07T07:24:21.959Z,9.90
2022-10-07T07:26:51.100Z,10.00
2022-10-07T07:29:20.601Z,10.20
2022-10-07T07:31:50.265Z,10.30
2022-10-07T07:34:19.850Z,10.70
2022-10-07T07:36:52.177Z,10.50
2022-10-07T07:39:22.739Z,10.70
2022-10-07T07:41:51.977Z,10.80
2022-10-07T07:44:21.042Z,10.90
2022-10-07T07:46:52.538Z,11.00
2022-10-07T07:49:23.342Z,11.20
2022-10-07T07:51:52.560Z,11.40
2022-10-07T07:54:25.259Z,11.50
2022-10-07T07:56:55.486Z,11.60
2022-10-07T07:59:25.617Z,11.80
2022-10-07T08:01:55.078Z,11.90
2022-10-07T08:04:25.418Z,12.00
2022-10-07T08:06:55.986Z,12.10
2022-10-07T08:09:26.968Z,12.30
2022-10-07T08:11:57.732Z,12.50
2022-10-07T08:14:27.094Z,12.60
2022-10-07T08:16:59.588Z,12.80
2022-10-07T08:19:29.884Z,12.90
2022-10-07T08:21:59.097Z,13.00
2022-10-07T08:24:39.006Z,13.10
2022-10-07T08:27:08.152Z,13.20
2022-10-07T08:29:38.236Z,13.30
2022-10-07T08:32:07.746Z,13.40
2022-10-07T08:34:37.380Z,13.50
2022-10-07T08:37:07.238Z,13.70
2022-10-07T08:39:37.931Z,13.70
2022-10-07T08:42:13.763Z,13.80
2022-10-07T08:44:45.413Z,13.90
2022-10-07T08:47:23.104Z,14.10
2022-10-07T08:50:02.379Z,14.20
2022-10-07T08:52:41.242Z,14.30
2022-10-07T08:55:20.165Z,14.40
2022-10-07T08:58:04.899Z,14.40
2022-10-07T09:00:42.747Z,14.60
2022-10-07T09:03:24.945Z,14.60
2022-10-07T09:05:57.479Z,14.70
2022-10-07T09:08:31.234Z,14.80
2022-10-07T09:11:16.119Z,14.80
2022-10-07T09:13:49.213Z,15.00
2022-10-07T09:16:22.489Z,15.00
2022-10-07T09:18:57.220Z,15.10
2022-10-07T09:21:34.418Z,15.10
2022-10-07T09:24:16.939Z,15.20
2022-10-07T09:26:47.957Z,15.20
2022-10-07T09:29:21.144Z,15.40
2022-10-07T09:31:50.786Z,15.50
2022-10-07T09:34:24.123Z,15.50
2022-10-07T09:37:19.406Z,15.50
2022-10-07T09:39:50.834Z,15.60
2022-10-07T09:42:32.958Z,15.70
2022-10-07T09:45:06.144Z,15.70
2022-10-07T09:47:40.799Z,15.70
2022-10-07T09:50:34.101Z,15.70
2022-10-07T09:53:04.227Z,15.70
2022-10-07T09:55:39.080Z,15.60
2022-10-07T09:58:19.697Z,15.60
2022-10-07T10:00:50.771Z,15.60
2022-10-07T10:03:21.227Z,15.80
2022-10-07T10:05:58.474Z,15.90
2022-10-07T10:08:30.602Z,16.00
2022-10-07T10:11:02.423Z,15.80
2022-10-07T10:13:36.995Z,15.90
2022-10-07T10:16:08.812Z,15.90
2022-10-07T10:18:40.667Z,16.00
2022-10-07T10:21:30.780Z,16.10
2022-10-07T10:24:04.198Z,16.20
2022-10-07T10:26:56.518Z,16.00
2022-10-07T10:29:36.239Z,16.20
2022-10-07T10:32:30.756Z,16.20
2022-10-07T10:35:10.165Z,16.20
2022-10-07T10:38:02.286Z,16.30
2022-10-07T10:40:38.041Z,16.30
2022-10-07T10:43:23.505Z,16.20
2022-10-07T10:46:20.675Z,16.30
2022-10-07T10:48:56.835Z,16.40
2022-10-07T10:51:51.366Z,16.40
2022-10-07T10:54:28.247Z,16.30
2022-10-07T10:57:03.970Z,16.30
2022-10-07T10:59:53.445Z,16.30
2022-10-07T11:02:52.891Z,16.40
2022-10-07T11:05:26.054Z,16.40
2022-10-07T11:08:02.094Z,16.30
2022-10-07T11:10:38.535Z,16.40
2022-10-07T11:13:26.151Z,16.50
2022-10-07T11:16:01.736Z,16.40
2022-10-07T11:18:40.795Z,16.40
2022-10-07T11:21:14.518Z,16.50
2022-10-07T11:23:54.866Z,16.60
2022-10-07T11:26:33.874Z,16.50
2022-10-07T11:29:14.260Z,16.50
2022-10-07T11:31:50.359Z,16.50
2022-10-07T11:34:24.926Z,16.50
2022-10-07T11:37:03.506Z,16.50
2022-10-07T11:39:32.987Z,16.50
2022-10-07T11:42:06.215Z,16.50
2022-10-07T11:44:41.274Z,16.50
2022-10-07T11:47:18.742Z,16.60
2022-10-07T11:49:58.177Z,16.60
2022-10-07T11:52:30.458Z,16.60
2022-10-07T11:55:06.559Z,16.60
2022-10-07T11:57:38.958Z,16.60
2022-10-07T12:00:10.278Z,16.60
2022-10-07T12:02:44.085Z,16.60
2022-10-07T12:05:52.638Z,16.50
2022-10-07T12:08:35.687Z,16.50
2022-10-07T12:11:45.220Z,16.50
2022-10-07T12:14:45.120Z,16.60
2022-10-07T12:17:24.558Z,16.50
2022-10-07T12:20:30.940Z,16.40
2022-10-07T12:23:39.967Z,16.50
2022-10-07T12:26:50.979Z,16.40
2022-10-07T12:29:49.320Z,16.40
2022-10-07T12:32:58.120Z,16.40
2022-10-07T12:35:54.271Z,16.40
2022-10-07T12:38:27.054Z,16.40
2022-10-07T12:41:25.372Z,16.30
2022-10-07T12:44:07.518Z,16.40
2022-10-07T12:46:44.179Z,16.40
2022-10-07T12:49:26.400Z,16.40
2022-10-07T12:51:59.706Z,16.30
2022-10-07T12:54:34.887Z,16.30
2022-10-07T12:57:14.088Z,16.20
2022-10-07T12:59:51.809Z,16.20
2022-10-07T13:03:00.578Z,16.20
2022-10-07T13:06:18.338Z,16.20
2022-10-07T13:09:28.898Z,16.20
2022-10-07T13:12:28.878Z,16.10
2022-10-07T13:15:08.986Z,16.10
2022-10-07T13:17:47.827Z,16.00
2022-10-07T13:20:33.161Z,16.00
2022-10-07T13:23:13.139Z,16.00
2022-10-07T13:25:50.851Z,15.90
2022-10-07T13:28:25.306Z,15.90
2022-10-07T13:31:24.586Z,15.90
2022-10-07T13:33:54.755Z,15.70
2022-10-07T13:36:26.551Z,15.80
2022-10-07T13:39:10.909Z,15.80
2022-10-07T13:41:42.758Z,15.70
2022-10-07T13:44:16.674Z,15.70
2022-10-07T13:46:55.166Z,15.70
2022-10-07T13:49:27.690Z,15.70
2022-10-07T13:51:59.479Z,15.70
2022-10-07T13:54:30.986Z,15.60
2022-10-07T13:57:00.982Z,15.60
2022-10-07T13:59:36.968Z,15.50
2022-10-07T14:02:06.455Z,15.50
2022-10-07T14:04:36.047Z,15.40
2022-10-07T14:07:17.957Z,15.40
2022-10-07T14:09:49.060Z,15.40
2022-10-07T14:12:22.379Z,15.20
2022-10-07T14:14:56.686Z,15.20
2022-10-07T14:17:32.838Z,15.10
2022-10-07T14:20:05.907Z,15.00
2022-10-07T14:22:39.362Z,15.00
2022-10-07T14:25:19.366Z,14.90
2022-10-07T14:28:12.141Z,14.90
2022-10-07T14:31:00.391Z,14.80
2022-10-07T14:33:56.539Z,14.80
2022-10-07T14:36:25.790Z,14.70
2022-10-07T14:38:58.468Z,14.70
2022-10-07T14:41:30.085Z,14.60
2022-10-07T14:44:00.491Z,14.50
2022-10-07T14:46:31.233Z,14.50
2022-10-07T14:49:00.279Z,14.40
2022-10-07T14:51:31.178Z,14.30
2022-10-07T14:54:04.878Z,14.20
2022-10-07T14:56:37.458Z,14.10
2022-10-07T14:59:08.119Z,14.00
2022-10-07T15:01:38.772Z,13.90
2022-10-07T15:04:07.904Z,13.80
2022-10-07T15:06:37.698Z,13.70
2022-10-07T15:09:06.918Z,13.60
2022-10-07T15:11:36.430Z,13.50
2022-10-07T15:14:05.578Z,13.40
2022-10-07T15:16:34.647Z,13.30
2022-10-07T15:19:05.276Z,13.20
2022-10-07T15:21:34.359Z,13.10
2022-10-07T15:24:03.534Z,13.00
2022-10-07T15:26:32.519Z,12.80
2022-10-07T15:29:01.866Z,12.70
2022-10-07T15:31:31.945Z,12.60
2022-10-07T15:34:01.220Z,12.40
2022-10-07T15:36:32.986Z,12.40
2022-10-07T15:39:02.819Z,12.30
2022-10-07T15:41:36.918Z,12.20
2022-10-07T15:44:07.663Z,12.20
2022-10-07T15:46:36.679Z,12.00
2022-10-07T15:49:06.166Z,11.90
2022-10-07T15:51:37.195Z,11.90
2022-10-07T15:54:07.299Z,11.80
2022-10-07T15:56:36.578Z,11.70
2022-10-07T15:59:06.409Z,11.60
2022-10-07T16:01:35.880Z,11.50
2022-10-07T16:04:05.889Z,11.40
2022-10-07T16:06:37.489Z,11.30
2022-10-07T16:09:07.503Z,11.20
2022-10-07T16:11:36.519Z,11.10
2022-10-07T16:14:05.684Z,11.00
2022-10-07T16:16:35.138Z,10.80
2022-10-07T16:19:05.183Z,10.80
2022-10-07T16:21:37.546Z,10.60
2022-10-07T16:24:09.247Z,10.50
2022-10-07T16:26:38.512Z,10.40
2022-10-07T16:29:26.699Z,10.40
2022-10-07T16:31:58.909Z,10.20
2022-10-07T16:34:29.668Z,10.20
2022-10-07T16:37:00.312Z,10.10
2022-10-07T16:39:29.367Z,10.00
2022-10-07T16:41:59.983Z,9.90
2022-10-07T16:44:29.932Z,9.80
2022-10-07T16:47:03.726Z,9.80
2022-10-07T16:49:32.822Z,9.70
2022-10-07T16:52:03.179Z,9.70
2022-10-07T16:54:35.608Z,9.70
2022-10-07T16:57:04.484Z,9.60
2022-10-07T16:59:33.585Z,9.50
2022-10-07T17:02:05.357Z,9.50
2022-10-07T17:04:34.617Z,9.40
2022-10-07T17:07:06.294Z,9.40
2022-10-07T17:09:35.337Z,9.30
2022-10-07T17:12:04.939Z,9.20
2022-10-07T17:14:34.135Z,9.20
2022-10-07T17:17:04.383Z,9.10
2022-10-07T17:19:33.952Z,9.10
2022-10-07T17:22:04.638Z,9.00
2022-10-07T17:24:34.246Z,9.00
2022-10-07T17:27:03.222Z,8.90
2022-10-07T17:29:34.575Z,8.80
2022-10-07T17:32:03.618Z,8.80
2022-10-07T17:34:34.599Z,8.80
2022-10-07T17:37:05.035Z,8.70
2022-10-07T17:39:34.067Z,8.70
2022-10-07T17:42:02.987Z,8.70
2022-10-07T17:44:32.318Z,8.60
2022-10-07T17:47:04.022Z,8.60
2022-10-07T17:49:33.102Z,8.60
2022-10-07T17:52:02.486Z,8.50
2022-10-07T17:54:33.058Z,8.50
2022-10-07T17:57:02.086Z,8.40
2022-10-07T17:59:31.081Z,8.40
2022-10-07T18:02:02.187Z,8.30
2022-10-07T18:04:31.546Z,8.30
2022-10-07T18:07:00.532Z,8.20
2022-10-07T18:09:29.930Z,7.90
2022-10-07T18:12:17.831Z,8.10
2022-10-07T18:15:04.295Z,8.10
2022-10-07T18:17:33.359Z,8.10
2022-10-07T18:20:02.359Z,8.00
2022-10-07T18:22:31.279Z,8.00
2022-10-07T18:25:00.659Z,8.00
2022-10-07T18:27:31.559Z,8.00
2022-10-07T18:30:01.919Z,8.00
2022-10-07T18:32:31.367Z,7.90
2022-10-07T18:35:00.538Z,7.90
2022-10-07T18:37:29.599Z,7.90
2022-10-07T18:39:59.667Z,7.90
2022-10-07T18:42:30.380Z,7.90
2022-10-07T18:44:59.459Z,7.90
2022-10-07T18:47:30.016Z,7.80
2022-10-07T18:49:59.716Z,7.80
2022-10-07T18:52:29.656Z,7.80
2022-10-07T18:55:00.268Z,7.80
2022-10-07T18:57:30.818Z,7.80
2022-10-07T19:00:00.299Z,7.80
2022-10-07T19:02:41.099Z,7.70
2022-10-07T19:05:11.087Z,7.70
2022-10-07T19:07:40.706Z,7.70
2022-10-07T19:10:11.046Z,7.70
2022-10-07T19:13:00.489Z,7.70
2022-10-07T19:15:29.978Z,7.70
2022-10-07T19:17:59.250Z,7.70
2022-10-07T19:20:28.299Z,7.70
2022-10-07T19:22:57.758Z,7.70
2022-10-07T19:25:44.439Z,7.60
2022-10-07T19:28:14.992Z,7.70
2022-10-07T19:30:45.575Z,7.60
2022-10-07T19:33:14.566Z,7.70
2022-10-07T19:35:43.527Z,7.70
2022-10-07T19:38:13.267Z,7.60
2022-10-07T19:40:56.855Z,7.60
2022-10-07T19:43:28.358Z,7.70
2022-10-07T19:46:03.176Z,7.70
2022-10-07T19:48:33.298Z,7.70
2022-10-07T19:51:04.826Z,7.70
2022-10-07T19:53:35.977Z,7.70
2022-10-07T19:56:06.959Z,7.80
2022-10-07T19:58:41.326Z,7.80
2022-10-07T20:01:12.398Z,7.80
2022-10-07T20:03:41.926Z,7.80
2022-10-07T20:06:12.019Z,7.80
2022-10-07T20:08:43.429Z,7.70
2022-10-07T20:11:13.927Z,7.80
2022-10-07T20:13:44.938Z,7.80
2022-10-07T20:16:16.691Z,7.80
2022-10-07T20:18:46.507Z,7.70
2022-10-07T20:21:18.358Z,7.70
2022-10-07T20:23:50.266Z,7.70
2022-10-07T20:26:21.045Z,7.70
2022-10-07T20:28:54.554Z,7.70
2022-10-07T20:31:25.240Z,7.70
2022-10-07T20:33:56.137Z,7.70
2022-10-07T20:36:27.288Z,7.60
2022-10-07T20:39:13.881Z,7.70
2022-10-07T20:41:59.980Z,7.70
2022-10-07T20:44:30.507Z,7.70
2022-10-07T20:46:59.919Z,7.70
2022-10-07T20:49:30.446Z,7.80
2022-10-07T20:52:02.694Z,7.80
2022-10-07T20:54:32.999Z,7.80
2022-10-07T20:57:02.030Z,7.80
2022-10-07T20:59:33.819Z,7.70
2022-10-07T21:02:09.698Z,7.80
2022-10-07T21:04:40.564Z,7.80
2022-10-07T21:07:09.858Z,7.70
2022-10-07T21:09:40.576Z,7.80
2022-10-07T21:12:14.127Z,7.80
2022-10-07T21:14:48.228Z,7.80
2022-10-07T21:17:20.690Z,7.80
2022-10-07T21:19:49.940Z,7.80
2022-10-07T21:22:20.256Z,7.80
2022-10-07T21:24:49.152Z,7.80
2022-10-07T21:27:19.488Z,7.80
2022-10-07T21:29:51.806Z,7.80
2022-10-07T21:32:21.078Z,7.90
2022-10-07T21:34:50.159Z,7.90
2022-10-07T21:37:19.097Z,7.90
2022-10-07T21:39:48.151Z,7.90
2022-10-07T21:42:17.528Z,8.00
2022-10-07T21:44:47.699Z,8.00
2022-10-07T21:47:18.376Z,8.00
2022-10-07T21:49:48.129Z,8.00
2022-10-07T21:52:17.222Z,8.10
2022-10-07T21:54:46.225Z,8.10
2022-10-07T21:57:15.137Z,8.00
2022-10-07T21:59:44.435Z,8.00
2022-10-07T22:02:14.183Z,8.10
2022-10-07T22:04:44.987Z,8.10
2022-10-07T22:07:31.714Z,8.10
2022-10-07T22:10:00.894Z,8.20
2022-10-07T22:12:30.198Z,8.30
2022-10-07T22:14:59.279Z,8.30
2022-10-07T22:17:28.366Z,8.30
2022-10-07T22:19:59.247Z,8.40
2022-10-07T22:22:34.443Z,8.50
2022-10-07T22:25:03.671Z,8.60
2022-10-07T22:27:32.707Z,8.60
2022-10-07T22:30:05.205Z,8.80
2022-10-07T22:32:41.730Z,8.90
2022-10-07T22:35:38.946Z,9.10
2022-10-07T22:47:26.607Z,9.50
2022-10-07T22:49:55.626Z,9.50
2022-10-07T22:53:07.177Z,9.40
2022-10-07T22:55:38.510Z,9.50
2022-10-07T23:01:26.379Z,9.60
2022-10-07T23:10:01.168Z,9.80
2022-10-07T23:18:51.256Z,9.70
2022-10-07T23:21:24.926Z,9.70
2022-10-07T23:24:07.639Z,9.70
2022-10-07T23:26:47.519Z,9.80
2022-10-07T23:29:19.929Z,10.00
2022-10-07T23:31:49.004Z,10.10
2022-10-07T23:34:18.898Z,10.10
2022-10-07T23:36:47.911Z,10.10
2022-10-07T23:39:16.996Z,10.20
2022-10-07T23:41:47.566Z,10.30
2022-10-07T23:44:16.508Z,10.30
2022-10-07T23:46:45.605Z,10.40
2022-10-07T23:49:14.594Z,10.50
2022-10-07T23:51:43.658Z,10.50
2022-10-07T23:54:12.559Z,10.50
2022-10-07T23:56:41.598Z,10.60
2022-10-07T23:59:12.299Z,10.60
